Kahuku, Hawaii
Current Conditions -  °F | °C
As of 2:58 PM on Friday 28 Nov 2014 (Local Time) from PHHI Reporting Station
Clear Clear  
Wind Chill: 75°   Ceiling: Unl
Heat Index: 75°   Visibility: 10mi
Dew Point: 61°   Wind: 15mph
Humidity: 62%   Direction: 60°ENE
Pressure: 30.01"   Gusts: 22mph
Location:  21.67°N, 157.94°W
Report Text: PHHI 290058Z AUTO 06013G19KT 10SM CLR 24/16 A3001 RMK AO2 PK WND 03026/06 SLP153 T02370160 $
Loading
Personal Weather Stations






























Interactive Weather Map New forecast layout! Learn more

10-Day Weather Forecast

Advertisements
Track Severe Weather on mobile